sensor_id;sensor_type;location;lat;lon;timestamp;pressure;altitude;pressure_sealevel;temperature;humidity
79455;BME280;68900;52.134;5.420;2023-05-29T00:01:43;102573.00;;;11.58;75.31
79455;BME280;68900;52.134;5.420;2023-05-29T00:04:10;102578.16;;;11.61;75.45
79455;BME280;68900;52.134;5.420;2023-05-29T00:07:02;102576.84;;;11.66;75.27
79455;BME280;68900;52.134;5.420;2023-05-29T00:09:29;102586.81;;;11.42;75.57
79455;BME280;68900;52.134;5.420;2023-05-29T00:12:02;102573.41;;;11.40;75.46
79455;BME280;68900;52.134;5.420;2023-05-29T00:14:41;102579.25;;;11.34;75.73
79455;BME280;68900;52.134;5.420;2023-05-29T00:17:08;102567.47;;;11.35;75.29
79455;BME280;68900;52.134;5.420;2023-05-29T00:19:35;102565.31;;;11.40;75.25
79455;BME280;68900;52.134;5.420;2023-05-29T00:22:02;102572.66;;;11.38;75.44
79455;BME280;68900;52.134;5.420;2023-05-29T00:24:30;102569.56;;;11.32;75.12
79455;BME280;68900;52.134;5.420;2023-05-29T00:27:02;102569.38;;;11.22;75.63
79455;BME280;68900;52.134;5.420;2023-05-29T00:30:01;102568.06;;;11.15;74.83
79455;BME280;68900;52.134;5.420;2023-05-29T00:32:42;102564.34;;;11.05;75.74
79455;BME280;68900;52.134;5.420;2023-05-29T00:35:24;102569.72;;;11.18;75.85
79455;BME280;68900;52.134;5.420;2023-05-29T00:38:11;102575.50;;;11.24;75.34
79455;BME280;68900;52.134;5.420;2023-05-29T00:40:47;102584.63;;;11.11;75.58
79455;BME280;68900;52.134;5.420;2023-05-29T00:43:40;102590.34;;;11.19;75.25
79455;BME280;68900;52.134;5.420;2023-05-29T00:46:09;102593.06;;;11.06;75.51
79455;BME280;68900;52.134;5.420;2023-05-29T00:49:02;102594.69;;;11.08;75.71
79455;BME280;68900;52.134;5.420;2023-05-29T00:51:31;102588.47;;;11.19;75.15
79455;BME280;68900;52.134;5.420;2023-05-29T00:53:59;102588.72;;;11.16;75.78
79455;BME280;68900;52.134;5.420;2023-05-29T00:56:41;102592.28;;;11.17;75.23
79455;BME280;68900;52.134;5.420;2023-05-29T00:59:14;102592.38;;;11.28;75.07
79455;BME280;68900;52.134;5.420;2023-05-29T01:01:54;102593.88;;;11.19;74.53
79455;BME280;68900;52.134;5.420;2023-05-29T01:04:58;102596.47;;;11.21;74.48
79455;BME280;68900;52.134;5.420;2023-05-29T01:07:25;102594.69;;;11.08;74.88
79455;BME280;68900;52.134;5.420;2023-05-29T01:09:53;102595.44;;;10.98;75.08
79455;BME280;68900;52.134;5.420;2023-05-29T01:12:40;102595.44;;;10.98;75.70
79455;BME280;68900;52.134;5.420;2023-05-29T01:26:01;102618.69;;;10.88;75.90
79455;BME280;68900;52.134;5.420;2023-05-29T01:28:40;102617.06;;;10.98;75.71
79455;BME280;68900;52.134;5.420;2023-05-29T01:31:09;102626.03;;;10.98;74.96
79455;BME280;68900;52.134;5.420;2023-05-29T01:33:39;102626.22;;;11.08;75.09
79455;BME280;68900;52.134;5.420;2023-05-29T01:36:10;102630.13;;;10.91;75.25
79455;BME280;68900;52.134;5.420;2023-05-29T01:38:37;102630.03;;;10.93;75.00
79455;BME280;68900;52.134;5.420;2023-05-29T01:41:04;102634.88;;;10.88;75.06
79455;BME280;68900;52.134;5.420;2023-05-29T01:43:31;102633.16;;;10.99;75.38
79455;BME280;68900;52.134;5.420;2023-05-29T01:45:58;102645.38;;;10.80;75.44
79455;BME280;68900;52.134;5.420;2023-05-29T01:48:25;102645.16;;;10.83;75.97
79455;BME280;68900;52.134;5.420;2023-05-29T01:50:52;102635.66;;;10.64;75.33
79455;BME280;68900;52.134;5.420;2023-05-29T01:53:21;102639.03;;;10.68;76.07
79455;BME280;68900;52.134;5.420;2023-05-29T01:55:50;102640.75;;;10.82;75.10
79455;BME280;68900;52.134;5.420;2023-05-29T01:58:17;102641.16;;;10.76;75.33
79455;BME280;68900;52.134;5.420;2023-05-29T02:00:46;102650.56;;;10.70;75.33
79455;BME280;68900;52.134;5.420;2023-05-29T02:03:18;102655.22;;;10.68;75.80
79455;BME280;68900;52.134;5.420;2023-05-29T02:05:44;102659.09;;;10.77;75.59
79455;BME280;68900;52.134;5.420;2023-05-29T02:08:11;102657.69;;;10.84;75.63
79455;BME280;68900;52.134;5.420;2023-05-29T02:10:38;102658.75;;;10.69;75.60
79455;BME280;68900;52.134;5.420;2023-05-29T02:13:04;102650.56;;;10.70;75.44
79455;BME280;68900;52.134;5.420;2023-05-29T02:15:31;102653.47;;;10.67;76.05
79455;BME280;68900;52.134;5.420;2023-05-29T02:17:58;102645.16;;;10.70;75.69
79455;BME280;68900;52.134;5.420;2023-05-29T02:20:27;102632.09;;;10.77;75.21
79455;BME280;68900;52.134;5.420;2023-05-29T02:22:54;102637.28;;;10.67;75.67
79455;BME280;68900;52.134;5.420;2023-05-29T02:25:21;102630.47;;;10.49;75.89
79455;BME280;68900;52.134;5.420;2023-05-29T02:27:47;102637.16;;;10.43;76.39
79455;BME280;68900;52.134;5.420;2023-05-29T02:30:14;102636.94;;;10.46;76.26
79455;BME280;68900;52.134;5.420;2023-05-29T02:32:41;102642.56;;;10.43;75.92
79455;BME280;68900;52.134;5.420;2023-05-29T02:35:08;102640.59;;;10.45;76.55
79455;BME280;68900;52.134;5.420;2023-05-29T02:37:35;102641.81;;;10.54;76.42
79455;BME280;68900;52.134;5.420;2023-05-29T02:40:03;102648.50;;;10.36;76.81
79455;BME280;68900;52.134;5.420;2023-05-29T02:42:30;102651.19;;;10.48;76.65
79455;BME280;68900;52.134;5.420;2023-05-29T02:44:57;102650.41;;;10.34;76.69
79455;BME280;68900;52.134;5.420;2023-05-29T02:47:26;102642.63;;;10.29;76.56
79455;BME280;68900;52.134;5.420;2023-05-29T02:49:53;102646.63;;;10.36;76.56
79455;BME280;68900;52.134;5.420;2023-05-29T02:52:20;102642.22;;;10.35;76.28
79455;BME280;68900;52.134;5.420;2023-05-29T02:55:01;102640.41;;;10.36;76.00
79455;BME280;68900;52.134;5.420;2023-05-29T02:57:32;102640.81;;;10.30;76.64
79455;BME280;68900;52.134;5.420;2023-05-29T02:59:59;102645.88;;;10.22;77.09
79455;BME280;68900;52.134;5.420;2023-05-29T03:02:27;102649.72;;;10.17;76.69
79455;BME280;68900;52.134;5.420;2023-05-29T03:04:54;102654.41;;;10.14;76.32
79455;BME280;68900;52.134;5.420;2023-05-29T03:07:21;102658.00;;;10.14;76.98
79455;BME280;68900;52.134;5.420;2023-05-29T03:09:48;102655.88;;;10.19;76.73
79455;BME280;68900;52.134;5.420;2023-05-29T03:12:14;102651.84;;;10.12;77.61
79455;BME280;68900;52.134;5.420;2023-05-29T03:14:42;102658.84;;;10.15;76.98
79455;BME280;68900;52.134;5.420;2023-05-29T03:17:08;102654.78;;;10.22;76.35
79455;BME280;68900;52.134;5.420;2023-05-29T03:19:48;102647.88;;;10.18;76.93
79455;BME280;68900;52.134;5.420;2023-05-29T03:22:17;102643.84;;;10.11;77.17
79455;BME280;68900;52.134;5.420;2023-05-29T03:24:44;102643.16;;;9.95;77.51
79455;BME280;68900;52.134;5.420;2023-05-29T03:27:11;102642.19;;;9.96;77.46
79455;BME280;68900;52.134;5.420;2023-05-29T03:29:38;102648.13;;;10.01;77.50
79455;BME280;68900;52.134;5.420;2023-05-29T03:32:05;102648.69;;;10.06;76.93
79455;BME280;68900;52.134;5.420;2023-05-29T03:34:31;102642.13;;;10.10;77.07
79455;BME280;68900;52.134;5.420;2023-05-29T03:37:10;102646.41;;;10.00;77.36
79455;BME280;68900;52.134;5.420;2023-05-29T03:39:40;102644.75;;;9.85;77.49
79455;BME280;68900;52.134;5.420;2023-05-29T03:42:19;102644.63;;;9.86;78.13
79455;BME280;68900;52.134;5.420;2023-05-29T03:44:46;102651.50;;;9.77;77.31
79455;BME280;68900;52.134;5.420;2023-05-29T03:47:14;102649.66;;;9.78;77.47
79455;BME280;68900;52.134;5.420;2023-05-29T03:49:41;102641.28;;;9.83;77.37
79455;BME280;68900;52.134;5.420;2023-05-29T03:52:08;102657.53;;;9.81;77.57
79455;BME280;68900;52.134;5.420;2023-05-29T03:54:35;102658.41;;;9.82;77.40
79455;BME280;68900;52.134;5.420;2023-05-29T03:57:02;102647.13;;;9.89;77.01
79455;BME280;68900;52.134;5.420;2023-05-29T03:59:28;102657.06;;;9.89;77.25
79455;BME280;68900;52.134;5.420;2023-05-29T04:01:55;102654.25;;;9.90;77.14
79455;BME280;68900;52.134;5.420;2023-05-29T04:07:44;102651.22;;;9.95;77.23
79455;BME280;68900;52.134;5.420;2023-05-29T04:10:11;102658.63;;;10.05;76.82
79455;BME280;68900;52.134;5.420;2023-05-29T04:12:38;102663.78;;;10.08;76.23
79455;BME280;68900;52.134;5.420;2023-05-29T04:17:53;102665.59;;;10.22;75.86
79455;BME280;68900;52.134;5.420;2023-05-29T04:20:20;102664.66;;;10.09;76.35
79455;BME280;68900;52.134;5.420;2023-05-29T04:22:47;102669.91;;;9.98;76.65
79455;BME280;68900;52.134;5.420;2023-05-29T04:25:21;102676.31;;;10.09;77.10
79455;BME280;68900;52.134;5.420;2023-05-29T04:27:47;102672.34;;;10.15;76.42
79455;BME280;68900;52.134;5.420;2023-05-29T04:30:27;102670.81;;;10.11;76.02
79455;BME280;68900;52.134;5.420;2023-05-29T04:32:55;102672.44;;;10.13;76.63
79455;BME280;68900;52.134;5.420;2023-05-29T04:35:47;102680.53;;;10.13;76.42
79455;BME280;68900;52.134;5.420;2023-05-29T04:38:15;102685.81;;;10.15;76.19
79455;BME280;68900;52.134;5.420;2023-05-29T04:40:48;102684.28;;;10.25;76.24
79455;BME280;68900;52.134;5.420;2023-05-29T04:43:20;102695.75;;;10.14;76.22
79455;BME280;68900;52.134;5.420;2023-05-29T04:45:47;102698.97;;;10.07;76.91
79455;BME280;68900;52.134;5.420;2023-05-29T04:48:14;102696.69;;;10.13;76.62
79455;BME280;68900;52.134;5.420;2023-05-29T04:50:48;102703.16;;;10.25;75.76
79455;BME280;68900;52.134;5.420;2023-05-29T04:53:15;102698.19;;;10.32;75.42
79455;BME280;68900;52.134;5.420;2023-05-29T04:55:42;102700.59;;;10.36;76.02
79455;BME280;68900;52.134;5.420;2023-05-29T04:58:08;102696.50;;;10.31;75.53
79455;BME280;68900;52.134;5.420;2023-05-29T05:00:35;102701.88;;;10.31;75.77
79455;BME280;68900;52.134;5.420;2023-05-29T05:03:02;102698.81;;;10.23;76.24
79455;BME280;68900;52.134;5.420;2023-05-29T05:05:28;102709.66;;;10.35;75.52
79455;BME280;68900;52.134;5.420;2023-05-29T05:07:55;102701.88;;;10.31;75.38
79455;BME280;68900;52.134;5.420;2023-05-29T05:10:22;102708.19;;;10.44;75.51
79455;BME280;68900;52.134;5.420;2023-05-29T05:13:03;102709.72;;;10.60;75.45
79455;BME280;68900;52.134;5.420;2023-05-29T05:15:33;102708.53;;;10.64;74.41
79455;BME280;68900;52.134;5.420;2023-05-29T05:18:21;102715.50;;;10.54;74.42
79455;BME280;68900;52.134;5.420;2023-05-29T05:20:47;102719.63;;;10.60;74.60
79455;BME280;68900;52.134;5.420;2023-05-29T05:23:14;102709.94;;;10.70;74.52
79455;BME280;68900;52.134;5.420;2023-05-29T05:25:41;102716.53;;;10.79;74.18
79455;BME280;68900;52.134;5.420;2023-05-29T05:28:08;102703.47;;;10.73;74.60
79455;BME280;68900;52.134;5.420;2023-05-29T05:30:55;102706.91;;;10.75;73.53
79455;BME280;68900;52.134;5.420;2023-05-29T05:33:22;102709.06;;;10.82;73.77
79455;BME280;68900;52.134;5.420;2023-05-29T05:35:49;102709.84;;;10.84;73.32
79455;BME280;68900;52.134;5.420;2023-05-29T05:38:16;102705.84;;;10.90;73.14
79455;BME280;68900;52.134;5.420;2023-05-29T05:40:43;102712.34;;;11.00;72.54
79455;BME280;68900;52.134;5.420;2023-05-29T05:43:11;102718.63;;;11.00;72.48
79455;BME280;68900;52.134;5.420;2023-05-29T05:45:53;102712.22;;;11.01;72.00
79455;BME280;68900;52.134;5.420;2023-05-29T05:48:20;102719.78;;;10.96;72.37
79455;BME280;68900;52.134;5.420;2023-05-29T05:50:47;102717.75;;;11.00;72.38
79455;BME280;68900;52.134;5.420;2023-05-29T05:53:13;102721.19;;;11.15;71.85
79455;BME280;68900;52.134;5.420;2023-05-29T05:55:40;102712.56;;;11.22;71.18
79455;BME280;68900;52.134;5.420;2023-05-29T05:58:07;102723.47;;;11.21;71.07
79455;BME280;68900;52.134;5.420;2023-05-29T06:00:34;102728.22;;;11.17;71.16
79455;BME280;68900;52.134;5.420;2023-05-29T06:03:07;102720.00;;;11.31;70.81
79455;BME280;68900;52.134;5.420;2023-05-29T06:05:33;102730.69;;;11.45;70.72
79455;BME280;68900;52.134;5.420;2023-05-29T06:08:02;102726.13;;;11.59;70.57
79455;BME280;68900;52.134;5.420;2023-05-29T06:10:29;102728.72;;;11.60;69.12
79455;BME280;68900;52.134;5.420;2023-05-29T06:12:56;102728.91;;;11.57;69.46
79455;BME280;68900;52.134;5.420;2023-05-29T06:15:22;102726.97;;;11.59;68.92
79455;BME280;68900;52.134;5.420;2023-05-29T06:17:49;102725.88;;;11.62;68.64
79455;BME280;68900;52.134;5.420;2023-05-29T06:20:18;102723.94;;;11.76;68.21
79455;BME280;68900;52.134;5.420;2023-05-29T06:22:46;102718.94;;;11.83;68.14
79455;BME280;68900;52.134;5.420;2023-05-29T06:25:17;102726.50;;;11.90;67.83
79455;BME280;68900;52.134;5.420;2023-05-29T06:27:46;102719.91;;;11.82;67.66
79455;BME280;68900;52.134;5.420;2023-05-29T06:30:15;102723.88;;;11.89;68.26
79455;BME280;68900;52.134;5.420;2023-05-29T06:32:43;102728.63;;;11.98;67.96
79455;BME280;68900;52.134;5.420;2023-05-29T06:35:10;102723.72;;;12.03;66.50
79455;BME280;68900;52.134;5.420;2023-05-29T06:37:36;102729.78;;;12.07;65.92
79455;BME280;68900;52.134;5.420;2023-05-29T06:40:29;102732.16;;;12.11;65.81
79455;BME280;68900;52.134;5.420;2023-05-29T06:42:55;102726.22;;;12.06;65.05
79455;BME280;68900;52.134;5.420;2023-05-29T06:49:59;102740.13;;;12.36;65.18
79455;BME280;68900;52.134;5.420;2023-05-29T06:52:26;102735.50;;;12.50;65.21
79455;BME280;68900;52.134;5.420;2023-05-29T06:54:52;102739.88;;;12.63;64.37
79455;BME280;68900;52.134;5.420;2023-05-29T06:57:20;102746.56;;;12.70;63.09
79455;BME280;68900;52.134;5.420;2023-05-29T06:59:47;102733.84;;;12.60;63.54
79455;BME280;68900;52.134;5.420;2023-05-29T07:02:14;102743.09;;;12.68;63.62
79455;BME280;68900;52.134;5.420;2023-05-29T07:04:42;102739.94;;;12.85;64.00
79455;BME280;68900;52.134;5.420;2023-05-29T07:07:09;102746.31;;;12.73;62.52
79455;BME280;68900;52.134;5.420;2023-05-29T07:09:36;102740.16;;;12.71;63.26
79455;BME280;68900;52.134;5.420;2023-05-29T07:12:02;102740.66;;;12.76;63.02
79455;BME280;68900;52.134;5.420;2023-05-29T07:14:32;102738.50;;;12.93;62.61
79455;BME280;68900;52.134;5.420;2023-05-29T07:17:43;102739.22;;;12.83;62.58
79455;BME280;68900;52.134;5.420;2023-05-29T07:20:33;102742.31;;;13.01;62.98
79455;BME280;68900;52.134;5.420;2023-05-29T07:22:59;102743.53;;;12.97;61.85
79455;BME280;68900;52.134;5.420;2023-05-29T07:25:26;102751.13;;;13.16;61.20
79455;BME280;68900;52.134;5.420;2023-05-29T07:27:53;102762.78;;;13.05;61.33
79455;BME280;68900;52.134;5.420;2023-05-29T07:30:20;102759.38;;;13.14;61.85
79455;BME280;68900;52.134;5.420;2023-05-29T07:32:46;102747.81;;;13.12;60.52
79455;BME280;68900;52.134;5.420;2023-05-29T07:35:13;102763.69;;;13.17;60.91
79455;BME280;68900;52.134;5.420;2023-05-29T07:37:53;102750.50;;;13.12;60.26
79455;BME280;68900;52.134;5.420;2023-05-29T07:40:20;102755.22;;;13.21;60.66
79455;BME280;68900;52.134;5.420;2023-05-29T07:42:47;102759.88;;;13.19;60.37
79455;BME280;68900;52.134;5.420;2023-05-29T07:45:14;102750.53;;;13.35;60.10
79455;BME280;68900;52.134;5.420;2023-05-29T07:47:40;102748.56;;;13.48;59.49
79455;BME280;68900;52.134;5.420;2023-05-29T07:50:21;102750.53;;;13.57;60.09
79455;BME280;68900;52.134;5.420;2023-05-29T07:52:47;102760.50;;;13.79;58.59
79455;BME280;68900;52.134;5.420;2023-05-29T07:55:14;102758.66;;;13.90;58.22
79455;BME280;68900;52.134;5.420;2023-05-29T07:57:41;102757.66;;;13.80;57.62
79455;BME280;68900;52.134;5.420;2023-05-29T08:00:12;102760.50;;;13.90;57.73
79455;BME280;68900;52.134;5.420;2023-05-29T08:02:39;102761.88;;;13.73;57.14
79455;BME280;68900;52.134;5.420;2023-05-29T08:05:07;102769.50;;;13.79;57.04
79455;BME280;68900;52.134;5.420;2023-05-29T08:07:35;102769.00;;;13.74;56.90
79455;BME280;68900;52.134;5.420;2023-05-29T08:10:01;102751.25;;;13.70;58.23
79455;BME280;68900;52.134;5.420;2023-05-29T08:12:38;102761.59;;;13.98;56.72
79455;BME280;68900;52.134;5.420;2023-05-29T08:15:05;102759.47;;;14.02;56.63
79455;BME280;68900;52.134;5.420;2023-05-29T08:17:32;102760.88;;;13.96;56.93
79455;BME280;68900;52.134;5.420;2023-05-29T08:19:59;102763.53;;;14.07;56.84
79455;BME280;68900;52.134;5.420;2023-05-29T08:22:43;102767.44;;;14.37;55.80
79455;BME280;68900;52.134;5.420;2023-05-29T08:25:19;102761.03;;;14.38;55.50
79455;BME280;68900;52.134;5.420;2023-05-29T08:27:51;102768.44;;;14.25;55.86
79455;BME280;68900;52.134;5.420;2023-05-29T08:30:20;102768.44;;;14.36;55.81
79455;BME280;68900;52.134;5.420;2023-05-29T08:32:48;102764.06;;;14.44;55.99
79455;BME280;68900;52.134;5.420;2023-05-29T08:35:17;102768.25;;;14.48;55.79
79455;BME280;68900;52.134;5.420;2023-05-29T08:37:59;102754.84;;;14.68;55.54
79455;BME280;68900;52.134;5.420;2023-05-29T08:40:26;102760.44;;;14.87;55.40
79455;BME280;68900;52.134;5.420;2023-05-29T08:43:10;102771.81;;;14.81;54.81
79455;BME280;68900;52.134;5.420;2023-05-29T08:45:42;102767.84;;;14.85;54.89
79455;BME280;68900;52.134;5.420;2023-05-29T08:48:10;102771.31;;;14.87;54.77
79455;BME280;68900;52.134;5.420;2023-05-29T08:50:44;102770.47;;;14.75;54.61
79455;BME280;68900;52.134;5.420;2023-05-29T08:53:15;102776.06;;;14.74;54.75
79455;BME280;68900;52.134;5.420;2023-05-29T08:55:48;102769.50;;;14.76;53.99
79455;BME280;68900;52.134;5.420;2023-05-29T08:58:47;102770.88;;;14.71;54.19
79455;BME280;68900;52.134;5.420;2023-05-29T09:01:27;102775.91;;;14.54;54.66
79455;BME280;68900;52.134;5.420;2023-05-29T09:03:59;102785.91;;;14.54;55.09
79455;BME280;68900;52.134;5.420;2023-05-29T09:06:26;102778.03;;;14.72;53.40
79455;BME280;68900;52.134;5.420;2023-05-29T09:08:52;102765.88;;;14.87;53.56
79455;BME280;68900;52.134;5.420;2023-05-29T09:11:31;102783.13;;;14.97;53.25
79455;BME280;68900;52.134;5.420;2023-05-29T09:14:00;102762.31;;;15.17;54.34
79455;BME280;68900;52.134;5.420;2023-05-29T09:16:29;102777.72;;;15.27;52.20
79455;BME280;68900;52.134;5.420;2023-05-29T09:19:11;102782.84;;;14.79;53.33
79455;BME280;68900;52.134;5.420;2023-05-29T09:21:39;102774.56;;;15.01;53.44
79455;BME280;68900;52.134;5.420;2023-05-29T09:24:24;102780.66;;;15.15;52.55
79455;BME280;68900;52.134;5.420;2023-05-29T09:26:52;102778.34;;;15.10;53.61
79455;BME280;68900;52.134;5.420;2023-05-29T09:29:35;102773.66;;;15.42;52.79
79455;BME280;68900;52.134;5.420;2023-05-29T09:32:24;102772.25;;;15.48;52.44
79455;BME280;68900;52.134;5.420;2023-05-29T09:35:19;102776.44;;;15.31;52.97
79455;BME280;68900;52.134;5.420;2023-05-29T09:37:45;102764.06;;;15.38;51.86
79455;BME280;68900;52.134;5.420;2023-05-29T09:40:12;102768.31;;;15.52;52.73
79455;BME280;68900;52.134;5.420;2023-05-29T09:42:53;102767.44;;;15.52;51.73
79455;BME280;68900;52.134;5.420;2023-05-29T09:45:25;102764.19;;;15.37;52.00
79455;BME280;68900;52.134;5.420;2023-05-29T09:47:52;102759.19;;;15.63;51.07
79455;BME280;68900;52.134;5.420;2023-05-29T09:50:19;102763.47;;;15.65;50.86
79455;BME280;68900;52.134;5.420;2023-05-29T09:53:00;102770.66;;;15.66;50.46
79455;BME280;68900;52.134;5.420;2023-05-29T09:55:43;102763.56;;;15.84;51.42
79455;BME280;68900;52.134;5.420;2023-05-29T09:58:10;102760.63;;;15.67;51.33
79455;BME280;68900;52.134;5.420;2023-05-29T10:00:39;102766.53;;;15.81;52.42
79455;BME280;68900;52.134;5.420;2023-05-29T10:03:06;102753.72;;;16.03;50.61
79455;BME280;68900;52.134;5.420;2023-05-29T10:05:42;102754.41;;;16.05;50.42
79455;BME280;68900;52.134;5.420;2023-05-29T10:08:25;102751.72;;;16.14;50.15
79455;BME280;68900;52.134;5.420;2023-05-29T10:10:58;102767.00;;;15.96;49.62
79455;BME280;68900;52.134;5.420;2023-05-29T10:13:41;102759.31;;;16.11;50.35
79455;BME280;68900;52.134;5.420;2023-05-29T10:16:12;102746.13;;;16.06;49.68
79455;BME280;68900;52.134;5.420;2023-05-29T10:18:55;102755.16;;;16.07;50.42
79455;BME280;68900;52.134;5.420;2023-05-29T10:21:26;102745.88;;;16.28;49.61
79455;BME280;68900;52.134;5.420;2023-05-29T10:24:07;102737.69;;;16.38;49.47
79455;BME280;68900;52.134;5.420;2023-05-29T10:26:38;102730.97;;;16.52;50.09
79455;BME280;68900;52.134;5.420;2023-05-29T10:29:26;102749.50;;;16.67;49.57
79455;BME280;68900;52.134;5.420;2023-05-29T10:32:20;102732.44;;;16.65;48.70
79455;BME280;68900;52.134;5.420;2023-05-29T10:37:46;102734.41;;;16.25;48.98
79455;BME280;68900;52.134;5.420;2023-05-29T10:40:23;102742.44;;;16.36;48.78
79455;BME280;68900;52.134;5.420;2023-05-29T10:42:51;102735.75;;;16.59;47.78
79455;BME280;68900;52.134;5.420;2023-05-29T10:50:50;102736.31;;;16.72;46.86
79455;BME280;68900;52.134;5.420;2023-05-29T10:53:30;102740.16;;;16.89;47.03
79455;BME280;68900;52.134;5.420;2023-05-29T10:55:59;102744.50;;;16.72;46.48
79455;BME280;68900;52.134;5.420;2023-05-29T10:58:27;102737.88;;;16.75;45.29
79455;BME280;68900;52.134;5.420;2023-05-29T11:00:54;102728.69;;;16.95;46.42
79455;BME280;68900;52.134;5.420;2023-05-29T11:03:37;102730.84;;;16.92;46.35
79455;BME280;68900;52.134;5.420;2023-05-29T11:06:22;102725.19;;;17.03;47.26
79455;BME280;68900;52.134;5.420;2023-05-29T11:08:56;102723.31;;;17.13;47.55
79455;BME280;68900;52.134;5.420;2023-05-29T11:11:30;102730.59;;;17.32;46.24
79455;BME280;68900;52.134;5.420;2023-05-29T11:14:04;102735.59;;;17.36;45.49
79455;BME280;68900;52.134;5.420;2023-05-29T11:19:03;102736.66;;;17.62;44.15
79455;BME280;68900;52.134;5.420;2023-05-29T11:21:57;102735.66;;;17.54;43.77
79455;BME280;68900;52.134;5.420;2023-05-29T11:24:28;102737.97;;;17.49;43.59
79455;BME280;68900;52.134;5.420;2023-05-29T11:27:11;102725.06;;;17.51;45.19
79455;BME280;68900;52.134;5.420;2023-05-29T11:29:38;102729.09;;;17.47;42.66
79455;BME280;68900;52.134;5.420;2023-05-29T11:32:06;102729.97;;;17.47;42.97
79455;BME280;68900;52.134;5.420;2023-05-29T11:34:55;102723.31;;;17.13;43.84
79455;BME280;68900;52.134;5.420;2023-05-29T11:37:23;102715.72;;;17.44;42.82
79455;BME280;68900;52.134;5.420;2023-05-29T11:40:09;102726.91;;;17.50;43.27
79455;BME280;68900;52.134;5.420;2023-05-29T11:42:53;102727.41;;;17.73;43.82
79455;BME280;68900;52.134;5.420;2023-05-29T11:45:21;102734.19;;;17.96;40.98
79455;BME280;68900;52.134;5.420;2023-05-29T11:48:09;102717.53;;;17.62;42.21
79455;BME280;68900;52.134;5.420;2023-05-29T11:53:01;102731.06;;;17.54;44.54
79455;BME280;68900;52.134;5.420;2023-05-29T11:55:28;102721.88;;;17.55;44.88
79455;BME280;68900;52.134;5.420;2023-05-29T11:58:03;102726.56;;;17.73;44.94
79455;BME280;68900;52.134;5.420;2023-05-29T12:00:33;102734.19;;;17.69;44.61
79455;BME280;68900;52.134;5.420;2023-05-29T12:03:00;102723.19;;;17.51;43.76
79455;BME280;68900;52.134;5.420;2023-05-29T12:05:58;102721.00;;;17.55;44.43
79455;BME280;68900;52.134;5.420;2023-05-29T12:08:26;102724.72;;;17.63;43.54
79455;BME280;68900;52.134;5.420;2023-05-29T12:10:54;102725.72;;;17.62;43.55
79455;BME280;68900;52.134;5.420;2023-05-29T12:13:34;102723.63;;;17.47;43.42
79455;BME280;68900;52.134;5.420;2023-05-29T12:16:08;102728.78;;;17.50;43.95
79455;BME280;68900;52.134;5.420;2023-05-29T12:18:47;102732.38;;;17.60;44.56
79455;BME280;68900;52.134;5.420;2023-05-29T12:21:53;102727.50;;;17.81;44.12
79455;BME280;68900;52.134;5.420;2023-05-29T12:24:20;102727.97;;;17.77;43.89
79455;BME280;68900;52.134;5.420;2023-05-29T12:27:26;102723.91;;;17.44;44.04
79455;BME280;68900;52.134;5.420;2023-05-29T12:30:01;102725.22;;;17.40;44.94
79455;BME280;68900;52.134;5.420;2023-05-29T12:32:42;102728.34;;;17.54;45.17
79455;BME280;68900;52.134;5.420;2023-05-29T12:35:23;102722.41;;;17.69;44.31
79455;BME280;68900;52.134;5.420;2023-05-29T12:38:07;102720.19;;;17.45;43.74
79455;BME280;68900;52.134;5.420;2023-05-29T12:40:36;102713.28;;;17.50;42.86
79455;BME280;68900;52.134;5.420;2023-05-29T12:43:11;102720.44;;;17.61;42.72
79455;BME280;68900;52.134;5.420;2023-05-29T12:45:40;102720.22;;;17.72;43.82
79455;BME280;68900;52.134;5.420;2023-05-29T12:48:57;102717.16;;;17.85;42.94
79455;BME280;68900;52.134;5.420;2023-05-29T12:52:12;102717.66;;;17.98;42.35
79455;BME280;68900;52.134;5.420;2023-05-29T12:54:59;102705.09;;;18.23;43.73
79455;BME280;68900;52.134;5.420;2023-05-29T13:04:59;102715.09;;;18.14;43.88
79455;BME280;68900;52.134;5.420;2023-05-29T13:08:02;102719.94;;;18.38;42.83
79455;BME280;68900;52.134;5.420;2023-05-29T13:11:34;102713.84;;;18.44;41.69
79455;BME280;68900;52.134;5.420;2023-05-29T13:14:07;102713.75;;;18.36;41.72
79455;BME280;68900;52.134;5.420;2023-05-29T13:16:37;102715.09;;;18.49;41.39
79455;BME280;68900;52.134;5.420;2023-05-29T13:19:19;102715.50;;;18.54;41.82
79455;BME280;68900;52.134;5.420;2023-05-29T13:21:52;102712.66;;;18.46;43.09
79455;BME280;68900;52.134;5.420;2023-05-29T13:24:55;102726.03;;;18.49;42.76
79455;BME280;68900;52.134;5.420;2023-05-29T13:27:17;102722.34;;;18.41;42.75
79455;BME280;68900;52.134;5.420;2023-05-29T13:37:44;102713.53;;;18.47;39.23
79455;BME280;68900;52.134;5.420;2023-05-29T13:40:11;102722.66;;;18.38;38.45
79455;BME280;68900;52.134;5.420;2023-05-29T13:42:41;102715.00;;;18.41;39.79
79455;BME280;68900;52.134;5.420;2023-05-29T13:45:08;102732.06;;;18.71;40.85
79455;BME280;68900;52.134;5.420;2023-05-29T13:47:35;102728.94;;;18.66;41.11
79455;BME280;68900;52.134;5.420;2023-05-29T13:50:02;102718.66;;;18.50;42.80
79455;BME280;68900;52.134;5.420;2023-05-29T13:52:29;102711.59;;;18.75;41.78
79455;BME280;68900;52.134;5.420;2023-05-29T13:54:56;102715.94;;;18.85;41.87
79455;BME280;68900;52.134;5.420;2023-05-29T13:57:25;102724.53;;;18.73;42.07
79455;BME280;68900;52.134;5.420;2023-05-29T13:59:52;102715.09;;;18.85;42.29
79455;BME280;68900;52.134;5.420;2023-05-29T14:02:19;102723.06;;;18.78;41.42
79455;BME280;68900;52.134;5.420;2023-05-29T14:04:46;102722.28;;;18.68;41.79
79455;BME280;68900;52.134;5.420;2023-05-29T14:07:12;102712.88;;;18.63;42.13
79455;BME280;68900;52.134;5.420;2023-05-29T14:09:39;102698.81;;;18.58;41.36